Decoded Metar for LFMN (NICE in FRANCE) (IATA:NCE) | Meteo·Mobile Aviation Weather
aviador You're here:

LFMN Decoded Metar

NICE in FRANCE
Report Time2019-04-20 10:00:00
UTC Time2019-04-20 10:26:57
Flight Rules vfr VFR
Wind080° at 15 kt
W.Decomp.*RWY 04: 11.7 kt HW 9.4 kt RCW
Visibility9999 m
Phenomena:N/A
Clouds:N/A
Expected CloudBase > 2,800 ft AGL from Temp-Dew spread
CeilingNone
Temp18°C (ISA +3)
Dew Point11°C (64% RH)
AAT12.9°C
QNH1024 hPa
Density Alt200 ft
Elevation33 ft
Report Wrong Elevation
Raw Report
LFMN 201000Z 08015KT CAVOK 18/11 Q1024 NOSIG=

Extra information for LFMN:More info

Metar Taf Metar & Taf Last 4 Metars F.Rules Stats Wind Profile Meteogram Temp Stats Airport Information Weather charts Add Link Nearby VenuesMetar ALERT Operation Metar Decoded Social comments